createdAt,value
2018-03-25T00:00:49.420Z,12
2018-03-25T00:02:11.778Z,11.9
2018-03-25T00:03:34.160Z,11.6
2018-03-25T00:05:09.148Z,11.7
2018-03-25T00:06:36.556Z,11.7
2018-03-25T00:07:56.379Z,11.9
2018-03-25T00:09:16.229Z,10.7
2018-03-25T00:10:36.064Z,10.7
2018-03-25T00:11:55.930Z,10.5
2018-03-25T00:13:23.396Z,10.9
2018-03-25T00:14:43.210Z,11.1
2018-03-25T00:16:05.572Z,11
2018-03-25T00:17:30.503Z,11
2018-03-25T00:18:50.362Z,11
2018-03-25T00:20:12.757Z,11.2
2018-03-25T00:21:32.610Z,11.3
2018-03-25T00:22:52.423Z,11.2
2018-03-25T00:24:17.309Z,11
2018-03-25T00:25:39.643Z,10.9
2018-03-25T00:26:59.453Z,10.5
2018-03-25T00:28:19.288Z,10.5
2018-03-25T00:29:39.137Z,10.6
2018-03-25T00:31:01.485Z,11.2
2018-03-25T00:32:23.826Z,11
2018-03-25T00:33:43.634Z,10.8
2018-03-25T00:35:06.036Z,10.9
2018-03-25T00:36:38.503Z,10.7
2018-03-25T00:38:05.940Z,10.7
2018-03-25T00:39:25.782Z,10.6
2018-03-25T00:40:45.674Z,10.8
2018-03-25T00:42:05.515Z,10.9
2018-03-25T00:43:25.355Z,10.7
2018-03-25T00:44:55.356Z,10.7
2018-03-25T00:46:15.196Z,10.7
2018-03-25T00:47:35.033Z,10.6
2018-03-25T00:48:57.373Z,10.7
2018-03-25T00:50:17.202Z,10.7
2018-03-25T00:51:39.600Z,10.7
2018-03-25T00:53:01.970Z,10.8
2018-03-25T00:54:26.851Z,11
2018-03-25T00:55:49.249Z,10.9
2018-03-25T00:57:11.649Z,10.9
2018-03-25T00:58:31.456Z,10.9
2018-03-25T00:59:51.267Z,10.9
2018-03-25T01:01:16.145Z,10.9
2018-03-25T01:02:46.075Z,10.7
2018-03-25T01:04:05.948Z,10.8
2018-03-25T01:05:25.828Z,11
2018-03-25T01:06:45.676Z,10.9
2018-03-25T01:08:05.563Z,10.6
2018-03-25T01:09:27.897Z,10.7
2018-03-25T01:10:50.326Z,10.8
2018-03-25T01:12:20.305Z,10.9
2018-03-25T01:13:47.719Z,10.8
2018-03-25T01:15:07.537Z,10.7
2018-03-25T01:16:27.404Z,10.9
2018-03-25T01:17:47.214Z,10.7
2018-03-25T01:19:07.029Z,10.6
2018-03-25T01:20:31.942Z,10.8
2018-03-25T01:21:54.299Z,10.9
2018-03-25T01:23:16.637Z,10.8
2018-03-25T01:24:39.018Z,10.8
2018-03-25T01:26:03.885Z,10.9
2018-03-25T01:27:31.278Z,10.7
2018-03-25T01:28:51.094Z,10.6
2018-03-25T01:30:13.438Z,10.7
2018-03-25T01:31:33.257Z,10.6
2018-03-25T01:32:55.658Z,10.7
2018-03-25T01:34:35.779Z,10.4
2018-03-25T01:35:55.639Z,10.6
2018-03-25T01:37:15.530Z,10.6
2018-03-25T01:38:37.911Z,10.6
2018-03-25T01:40:02.807Z,10.5
2018-03-25T01:41:22.614Z,10.4
2018-03-25T01:42:42.466Z,9.8
2018-03-25T01:44:02.261Z,9.7
2018-03-25T01:45:22.079Z,10.4
2018-03-25T01:46:41.920Z,10.3
2018-03-25T01:48:01.746Z,10
2018-03-25T01:49:21.548Z,9.6
2018-03-25T01:50:43.909Z,9.1
2018-03-25T01:52:03.731Z,10
2018-03-25T01:53:26.072Z,10
2018-03-25T01:54:45.873Z,9.7
2018-03-25T01:56:08.201Z,9.6
2018-03-25T01:57:33.066Z,9.9
2018-03-25T01:59:08.082Z,9.6
2018-03-25T02:00:43.074Z,9.9
2018-03-25T02:02:15.556Z,10.9
2018-03-25T02:03:35.416Z,10.8
2018-03-25T02:04:57.764Z,10.4
2018-03-25T02:06:17.627Z,10.1
2018-03-25T02:07:39.994Z,10.4
2018-03-25T02:08:59.859Z,10.4
2018-03-25T02:10:19.731Z,10.4
2018-03-25T02:11:39.541Z,10.4
2018-03-25T02:13:01.955Z,10.4
2018-03-25T02:14:24.349Z,10.5
2018-03-25T02:15:44.158Z,10.5
2018-03-25T02:17:03.967Z,10.5
2018-03-25T02:18:23.798Z,10.4
2018-03-25T02:19:48.677Z,10.4
2018-03-25T02:21:08.497Z,10.4
2018-03-25T02:22:33.405Z,9.9
2018-03-25T02:23:53.262Z,10.3
2018-03-25T02:25:13.129Z,10.4
2018-03-25T02:26:32.935Z,10.6
2018-03-25T02:27:57.916Z,10.5
2018-03-25T02:29:17.763Z,10.4
2018-03-25T02:30:37.576Z,10.6
2018-03-25T02:32:07.565Z,10.6
2018-03-25T02:33:29.933Z,10.6
2018-03-25T02:34:49.791Z,10.6
2018-03-25T02:36:17.227Z,10.5
2018-03-25T02:37:37.039Z,10.5
2018-03-25T02:38:59.399Z,10.6
2018-03-25T02:40:24.336Z,10.4
2018-03-25T02:41:51.799Z,10.2
2018-03-25T02:43:14.166Z,10.4
2018-03-25T02:44:33.981Z,10.4
2018-03-25T02:45:53.839Z,10.5
2018-03-25T02:47:13.681Z,10.5
2018-03-25T02:48:33.508Z,10.4
2018-03-25T02:49:53.369Z,10.4
2018-03-25T02:51:13.228Z,10.4
2018-03-25T02:52:33.068Z,10.4
2018-03-25T02:53:52.889Z,10.5
2018-03-25T02:55:20.325Z,10.4
2018-03-25T02:56:42.680Z,10.5
2018-03-25T02:58:15.190Z,10.6
2018-03-25T02:59:40.100Z,10.4
2018-03-25T03:00:59.947Z,10.4
2018-03-25T03:02:19.784Z,10.4
2018-03-25T03:03:49.792Z,10.3
2018-03-25T03:05:14.691Z,10.2
2018-03-25T03:06:42.104Z,10.5
2018-03-25T03:08:01.984Z,10.4
2018-03-25T03:09:21.791Z,10.4
2018-03-25T03:10:41.651Z,10.3
2018-03-25T03:12:01.472Z,10.4
2018-03-25T03:13:21.290Z,10.3
2018-03-25T03:14:41.111Z,10.3
2018-03-25T03:16:00.966Z,10.1
2018-03-25T03:17:20.785Z,10.2
2018-03-25T03:18:40.626Z,10.2
2018-03-25T03:20:02.984Z,10.1
2018-03-25T03:21:35.460Z,10.3
2018-03-25T03:23:00.357Z,10.2
2018-03-25T03:24:22.696Z,10.3
2018-03-25T03:25:42.514Z,10.3
2018-03-25T03:27:09.996Z,10.3
2018-03-25T03:28:34.887Z,10.3
2018-03-25T03:30:02.301Z,10.3
2018-03-25T03:31:24.682Z,10.3
2018-03-25T03:32:47.073Z,10.3
2018-03-25T03:34:12.007Z,10.3
2018-03-25T03:35:31.878Z,10.2
2018-03-25T03:36:54.219Z,10.1
2018-03-25T03:38:14.058Z,10.3
2018-03-25T03:39:33.920Z,10.2
2018-03-25T03:40:56.306Z,10.3
2018-03-25T03:42:23.777Z,10.3
2018-03-25T03:43:46.164Z,10.2
2018-03-25T03:45:06.006Z,10.1
2018-03-25T03:46:30.940Z,10.2
2018-03-25T03:47:50.809Z,10.3
2018-03-25T03:49:13.177Z,10
2018-03-25T03:50:33.028Z,10.1
2018-03-25T03:51:52.876Z,10
2018-03-25T03:53:17.761Z,10.2
2018-03-25T03:54:50.241Z,10.3
2018-03-25T03:56:17.641Z,10.3
2018-03-25T03:57:37.450Z,10.1
2018-03-25T03:59:09.935Z,10.2
2018-03-25T04:00:29.803Z,10.3
2018-03-25T04:01:49.672Z,10.2
2018-03-25T04:03:09.512Z,10.2
2018-03-25T04:04:31.894Z,10.1
2018-03-25T04:05:54.250Z,10
2018-03-25T04:07:16.589Z,10.1
2018-03-25T04:08:41.493Z,10.2
2018-03-25T04:10:01.364Z,10.1
2018-03-25T04:11:26.228Z,10.1
2018-03-25T04:12:53.639Z,10.1
2018-03-25T04:14:15.968Z,9.8
2018-03-25T04:15:35.812Z,9.7
2018-03-25T04:17:00.718Z,9.9
2018-03-25T04:18:20.589Z,10
2018-03-25T04:19:40.429Z,10.1
2018-03-25T04:21:02.750Z,9.9
2018-03-25T04:22:22.556Z,9.9
2018-03-25T04:23:42.399Z,9.8
2018-03-25T04:25:14.886Z,9.8
2018-03-25T04:26:37.215Z,9.9
2018-03-25T04:27:57.019Z,9.7
2018-03-25T04:29:21.896Z,9.6
2018-03-25T04:30:41.691Z,9.6
2018-03-25T04:32:06.546Z,9.7
2018-03-25T04:33:28.878Z,9.6
2018-03-25T04:34:53.785Z,9.5
2018-03-25T04:36:13.582Z,9.6
2018-03-25T04:37:35.943Z,9.6
2018-03-25T04:39:03.340Z,9.6
2018-03-25T04:40:28.229Z,9.8
2018-03-25T04:42:00.675Z,9.8
2018-03-25T04:43:23.011Z,9.7
2018-03-25T04:44:42.805Z,9.8
2018-03-25T04:46:02.643Z,9.7
2018-03-25T04:47:22.485Z,9.6
2018-03-25T04:48:42.334Z,9.6
2018-03-25T04:50:02.127Z,9.9
2018-03-25T04:51:21.977Z,9.9
2018-03-25T04:52:46.861Z,9.8
2018-03-25T04:54:09.223Z,9.8
2018-03-25T04:55:29.086Z,9.6
2018-03-25T04:56:51.449Z,9.8
2018-03-25T04:58:11.260Z,9.8
2018-03-25T04:59:31.077Z,9.8
2018-03-25T05:00:53.396Z,9.5
2018-03-25T05:02:15.720Z,9.7
2018-03-25T05:03:35.534Z,9.6
2018-03-25T05:04:57.854Z,9.5
2018-03-25T05:06:27.756Z,9.6
2018-03-25T05:08:02.751Z,9.5
2018-03-25T05:09:27.652Z,9.6
2018-03-25T05:10:47.467Z,9.5
2018-03-25T05:12:09.861Z,9.6
2018-03-25T05:13:29.723Z,9.7
2018-03-25T05:14:49.618Z,10
2018-03-25T05:16:09.461Z,10
2018-03-25T05:17:29.299Z,10
2018-03-25T05:18:49.133Z,10
2018-03-25T05:20:14.060Z,9.9
2018-03-25T05:21:33.947Z,10
2018-03-25T05:22:53.816Z,9.8
2018-03-25T05:24:13.647Z,10.2
2018-03-25T05:25:33.450Z,10.3
2018-03-25T05:26:53.271Z,10.1
2018-03-25T05:28:13.134Z,10.2
2018-03-25T05:29:32.942Z,10.2
2018-03-25T05:30:55.281Z,10
2018-03-25T05:32:17.632Z,9.9
2018-03-25T05:33:55.177Z,11.2
2018-03-25T05:35:22.591Z,11.2
2018-03-25T05:36:44.927Z,11.2
2018-03-25T05:38:17.385Z,11.3
2018-03-25T05:39:37.198Z,11.2
2018-03-25T05:40:57.064Z,11.1
2018-03-25T05:42:16.878Z,11.2
2018-03-25T05:43:41.748Z,11.1
2018-03-25T05:45:01.560Z,11.2
2018-03-25T05:46:23.925Z,11.3
2018-03-25T05:47:48.840Z,11.2
2018-03-25T05:49:13.747Z,11.3
2018-03-25T05:50:36.108Z,11.2
2018-03-25T05:51:55.915Z,11.3
2018-03-25T05:53:15.738Z,11.2
2018-03-25T05:54:35.561Z,11.3
2018-03-25T05:56:00.478Z,11.2
2018-03-25T05:57:20.293Z,11.2
2018-03-25T05:58:40.149Z,11.4
2018-03-25T06:00:00.020Z,11.5
2018-03-25T06:01:29.971Z,11.5
2018-03-25T06:02:54.857Z,11.5
2018-03-25T06:04:17.212Z,11.6
2018-03-25T06:05:37.026Z,11.7
2018-03-25T06:06:59.465Z,11.7
2018-03-25T06:08:19.358Z,11.6
2018-03-25T06:09:41.704Z,11.6
2018-03-25T06:11:14.195Z,11.6
2018-03-25T06:12:34.035Z,11.7
2018-03-25T06:13:53.881Z,11.5
2018-03-25T06:15:13.718Z,11.6
2018-03-25T06:16:33.530Z,11.5
2018-03-25T06:17:53.390Z,11.5
2018-03-25T06:19:18.275Z,11.7
2018-03-25T06:20:38.108Z,11.6
2018-03-25T06:21:57.980Z,11.7
2018-03-25T06:23:17.790Z,11.6
2018-03-25T06:24:42.685Z,11.7
2018-03-25T06:26:02.510Z,11.7
2018-03-25T06:27:24.894Z,11.7
2018-03-25T06:28:47.239Z,11.6
2018-03-25T06:30:09.587Z,11.7
2018-03-25T06:31:31.949Z,11.7
2018-03-25T06:32:51.791Z,11.8
2018-03-25T06:34:11.601Z,11.8
2018-03-25T06:35:33.989Z,11.8
2018-03-25T06:36:58.887Z,11.9
2018-03-25T06:38:21.233Z,11.9
2018-03-25T06:39:46.144Z,11.9
2018-03-25T06:41:08.492Z,12
2018-03-25T06:42:35.913Z,12
2018-03-25T06:43:58.246Z,12
2018-03-25T06:45:18.050Z,12
2018-03-25T06:46:48.045Z,12.1
2018-03-25T06:48:07.852Z,12.1
2018-03-25T06:49:27.670Z,12.2
2018-03-25T06:50:47.539Z,12.1
2018-03-25T06:52:07.407Z,12.1
2018-03-25T06:53:29.750Z,12
2018-03-25T06:54:54.641Z,12
2018-03-25T06:56:16.981Z,11.9
2018-03-25T06:57:36.792Z,12.3
2018-03-25T06:58:56.624Z,12
2018-03-25T07:00:24.056Z,12.3
2018-03-25T07:01:43.898Z,12.1
2018-03-25T07:03:03.742Z,11.9
2018-03-25T07:04:26.080Z,11.9
2018-03-25T07:05:45.893Z,12
2018-03-25T07:07:15.863Z,12
2018-03-25T07:08:35.716Z,12.1
2018-03-25T07:09:55.537Z,12.1
2018-03-25T07:11:15.363Z,12
2018-03-25T07:12:35.168Z,12.1
2018-03-25T07:14:05.171Z,12
2018-03-25T07:15:24.984Z,12.1
2018-03-25T07:16:47.323Z,12.1
2018-03-25T07:18:07.162Z,12.1
2018-03-25T07:19:32.057Z,12.2
2018-03-25T07:20:54.399Z,12.2
2018-03-25T07:22:16.752Z,12.4
2018-03-25T07:23:41.685Z,12.1
2018-03-25T07:25:01.519Z,10.8
2018-03-25T07:26:23.927Z,10.9
2018-03-25T07:27:43.768Z,11.3
2018-03-25T07:29:06.148Z,10.9
2018-03-25T07:30:31.016Z,10.4
2018-03-25T07:31:50.834Z,10.1
2018-03-25T07:33:13.193Z,10.1
2018-03-25T07:34:40.669Z,10.1
2018-03-25T07:36:00.478Z,10.2
2018-03-25T07:37:27.876Z,10.3
2018-03-25T07:38:47.736Z,10.2
2018-03-25T07:40:07.595Z,10.8
2018-03-25T07:41:27.446Z,11
2018-03-25T07:42:47.267Z,11.1
2018-03-25T07:44:07.081Z,10.8
2018-03-25T07:45:29.456Z,10.9
2018-03-25T07:46:49.277Z,10.8
2018-03-25T07:48:09.112Z,11
2018-03-25T07:49:36.560Z,10.8
2018-03-25T07:50:56.374Z,11.1
2018-03-25T07:52:16.247Z,11.3
2018-03-25T07:53:41.109Z,11.7
2018-03-25T07:55:00.920Z,12.2
2018-03-25T07:56:23.321Z,12.7
2018-03-25T07:57:45.666Z,13
2018-03-25T07:59:10.586Z,13.4
2018-03-25T08:00:32.938Z,13.8
2018-03-25T08:01:52.748Z,14.2
2018-03-25T08:03:12.557Z,14.6
2018-03-25T08:04:37.453Z,13.9
2018-03-25T08:05:57.325Z,14
2018-03-25T08:07:17.143Z,14.1
2018-03-25T08:08:37.017Z,14.1
2018-03-25T08:09:56.841Z,14.1
2018-03-25T08:11:19.180Z,14.5
2018-03-25T08:12:44.088Z,14.5
2018-03-25T08:14:08.980Z,14.8
2018-03-25T08:15:31.374Z,15.5
2018-03-25T08:16:51.196Z,15
2018-03-25T08:18:16.061Z,15.4
2018-03-25T08:19:35.867Z,15.7
2018-03-25T08:21:03.297Z,15.4
2018-03-25T08:22:28.206Z,15.6
2018-03-25T08:23:50.602Z,15.5
2018-03-25T08:25:10.417Z,15.6
2018-03-25T08:26:35.320Z,15.8
2018-03-25T08:28:02.779Z,15.7
2018-03-25T08:29:22.597Z,15.4
2018-03-25T08:30:47.486Z,15.6
2018-03-25T08:32:09.868Z,15.8
2018-03-25T08:33:34.739Z,16
2018-03-25T08:34:54.566Z,15.8
2018-03-25T08:36:14.437Z,16
2018-03-25T08:37:36.786Z,15.9
2018-03-25T08:38:59.126Z,15.8
2018-03-25T08:40:18.993Z,15.9
2018-03-25T08:41:38.848Z,15.6
2018-03-25T08:43:01.231Z,15.6
2018-03-25T08:44:21.048Z,15.7
2018-03-25T08:45:43.433Z,15.7
2018-03-25T08:47:03.270Z,15.6
2018-03-25T08:48:23.118Z,15.5
2018-03-25T08:49:42.961Z,15.4
2018-03-25T08:51:02.786Z,15.3
2018-03-25T08:52:22.659Z,15.4
2018-03-25T08:53:45.018Z,15.3
2018-03-25T08:55:07.355Z,15.4
2018-03-25T08:56:39.831Z,15.5
2018-03-25T08:58:07.227Z,15.5
2018-03-25T08:59:32.121Z,15.3
2018-03-25T09:00:57.023Z,15.2
2018-03-25T09:02:16.886Z,15.3
2018-03-25T09:03:36.696Z,15.3
2018-03-25T09:04:56.518Z,15.2
2018-03-25T09:06:21.400Z,15.3
2018-03-25T09:07:41.220Z,15.6
2018-03-25T09:09:06.107Z,15.6
2018-03-25T09:10:25.939Z,15.4
2018-03-25T09:11:55.876Z,15.4
2018-03-25T09:13:20.812Z,15.3
2018-03-25T09:14:53.413Z,15.5
2018-03-25T09:16:15.771Z,15.4
2018-03-25T09:17:35.592Z,15.5
2018-03-25T09:19:00.472Z,15.5
2018-03-25T09:20:20.280Z,15.2
2018-03-25T09:21:50.261Z,15.2
2018-03-25T09:23:10.083Z,15.3
2018-03-25T09:24:29.901Z,15.2
2018-03-25T09:25:49.719Z,14.9
2018-03-25T09:27:12.073Z,14.7
2018-03-25T09:28:34.463Z,14.8
2018-03-25T09:29:54.303Z,15
2018-03-25T09:31:26.813Z,15
2018-03-25T09:32:49.173Z,14.9
2018-03-25T09:34:19.120Z,14.9
2018-03-25T09:35:38.977Z,15.1
2018-03-25T09:36:58.806Z,15
2018-03-25T09:38:18.650Z,15
2018-03-25T09:39:40.988Z,14.7
2018-03-25T09:41:00.796Z,14.8
2018-03-25T09:42:23.200Z,14.8
2018-03-25T09:43:43.102Z,15
2018-03-25T09:45:08.019Z,15.1
2018-03-25T09:46:30.443Z,15.1
2018-03-25T09:47:50.328Z,15.1
2018-03-25T09:49:10.151Z,14.6
2018-03-25T09:50:32.492Z,14.7
2018-03-25T09:51:59.904Z,14.5
2018-03-25T09:53:22.252Z,14.9
2018-03-25T09:54:44.596Z,14.8
2018-03-25T09:56:09.502Z,14.7
2018-03-25T09:57:34.446Z,14.9
2018-03-25T09:58:56.828Z,15
2018-03-25T10:00:19.164Z,15
2018-03-25T10:01:38.981Z,15
2018-03-25T10:02:58.795Z,15.1
2018-03-25T10:04:18.648Z,15.2
2018-03-25T10:05:38.525Z,15.1
2018-03-25T10:07:05.961Z,15.2
2018-03-25T10:08:33.386Z,15.2
2018-03-25T10:09:53.228Z,15
2018-03-25T10:11:20.654Z,15
2018-03-25T10:12:40.481Z,15
2018-03-25T10:14:00.320Z,15
2018-03-25T10:15:22.686Z,15
2018-03-25T10:16:42.541Z,15
2018-03-25T10:18:04.916Z,15
2018-03-25T10:19:27.298Z,15
2018-03-25T10:20:54.723Z,15
2018-03-25T10:22:17.063Z,15.1
2018-03-25T10:23:36.884Z,15.1
2018-03-25T10:24:56.705Z,15.1
2018-03-25T10:26:24.150Z,15
2018-03-25T10:27:43.971Z,15
2018-03-25T10:29:03.813Z,14.9
2018-03-25T10:30:33.732Z,15
2018-03-25T10:31:53.551Z,15
2018-03-25T10:33:13.391Z,15
2018-03-25T10:34:40.805Z,15
2018-03-25T10:36:05.714Z,14.9
2018-03-25T10:37:25.524Z,14.9
2018-03-25T10:38:52.973Z,14.9
2018-03-25T10:40:12.812Z,15
2018-03-25T10:41:32.656Z,15
2018-03-25T10:42:52.498Z,15
2018-03-25T10:44:14.867Z,15
2018-03-25T10:45:42.326Z,15
2018-03-25T10:47:02.202Z,15
2018-03-25T10:48:27.091Z,14.9
2018-03-25T10:49:46.937Z,14.8
2018-03-25T10:51:11.845Z,14.9
2018-03-25T10:52:31.699Z,14.9
2018-03-25T10:53:51.546Z,14.8
2018-03-25T10:55:18.946Z,14.8
2018-03-25T10:56:38.779Z,14.8
2018-03-25T10:58:03.672Z,14.8
2018-03-25T10:59:23.482Z,14.7
2018-03-25T11:00:43.324Z,14.7
2018-03-25T11:02:10.735Z,14.8
2018-03-25T11:03:30.562Z,14.9
2018-03-25T11:04:52.989Z,14.9
2018-03-25T11:06:12.833Z,14.9
2018-03-25T11:07:32.664Z,14.9
2018-03-25T11:08:52.494Z,15
2018-03-25T11:10:17.417Z,15
2018-03-25T11:11:37.228Z,15.1
2018-03-25T11:12:59.621Z,15.1
2018-03-25T11:14:24.512Z,15.2
2018-03-25T11:15:49.391Z,15.3
2018-03-25T11:17:11.778Z,15.4
2018-03-25T11:18:31.641Z,15.4
2018-03-25T11:19:53.995Z,15.4
2018-03-25T11:21:13.803Z,15.4
2018-03-25T11:22:38.683Z,15.5
2018-03-25T11:24:18.744Z,15.6
2018-03-25T11:25:38.554Z,15.6
2018-03-25T11:26:58.368Z,15.6
2018-03-25T11:28:23.311Z,15.6
2018-03-25T11:29:43.198Z,15.5
2018-03-25T11:31:03.088Z,15.5
2018-03-25T11:32:28.016Z,15.5
2018-03-25T11:33:50.367Z,15.6
2018-03-25T11:35:10.186Z,15.6
2018-03-25T11:36:32.549Z,15.6
2018-03-25T11:37:52.388Z,15.6
2018-03-25T11:39:17.318Z,15.6
2018-03-25T11:40:44.733Z,15.7
2018-03-25T11:42:07.131Z,15.7
2018-03-25T11:43:29.578Z,15.7
2018-03-25T11:44:49.439Z,15.6
2018-03-25T11:46:09.266Z,15.5
2018-03-25T11:47:34.173Z,15.6
2018-03-25T11:48:54.027Z,15.7
2018-03-25T11:50:13.839Z,15.6
2018-03-25T11:51:33.697Z,15.6
2018-03-25T11:52:56.037Z,15.6
2018-03-25T11:54:15.842Z,15.6
2018-03-25T11:55:38.244Z,15.6
2018-03-25T11:56:58.088Z,15.5
2018-03-25T11:58:17.985Z,15.5
2018-03-25T11:59:37.834Z,15.6
2018-03-25T12:00:57.690Z,15.6
2018-03-25T12:02:17.542Z,15.5
2018-03-25T12:03:39.897Z,15.6
2018-03-25T12:04:59.725Z,15.6
2018-03-25T12:06:22.075Z,15.6
2018-03-25T12:07:41.934Z,15.7
2018-03-25T12:09:04.321Z,15.6
2018-03-25T12:10:26.698Z,15.7
2018-03-25T12:11:46.507Z,15.8
2018-03-25T12:13:06.327Z,15.8
2018-03-25T12:14:28.713Z,16
2018-03-25T12:15:48.528Z,16.2
2018-03-25T12:17:13.411Z,16.3
2018-03-25T12:18:33.244Z,16.4
2018-03-25T12:19:55.580Z,16.6
2018-03-25T12:21:15.411Z,16.8
2018-03-25T12:22:35.270Z,16.8
2018-03-25T12:23:57.642Z,17.2
2018-03-25T12:25:17.478Z,17.1
2018-03-25T12:26:37.375Z,17.3
2018-03-25T12:28:02.327Z,17.5
2018-03-25T12:29:22.207Z,17.9
2018-03-25T12:30:44.550Z,17.8
2018-03-25T12:32:06.892Z,17.9
2018-03-25T12:33:26.759Z,18.3
2018-03-25T12:34:46.569Z,18.3
2018-03-25T12:36:06.378Z,18.6
2018-03-25T12:37:28.733Z,18.8
2018-03-25T12:38:48.548Z,18.6
2018-03-25T12:40:15.942Z,18.7
2018-03-25T12:41:38.287Z,18.7
2018-03-25T12:43:00.629Z,18.7
2018-03-25T12:44:20.467Z,18.8
2018-03-25T12:45:40.280Z,18.8
2018-03-25T12:47:00.132Z,18.9
2018-03-25T12:48:19.939Z,18.8
2018-03-25T12:49:39.783Z,18.8
2018-03-25T12:50:59.596Z,18.7
2018-03-25T12:52:19.433Z,18.8
2018-03-25T12:53:39.255Z,18.8
2018-03-25T12:55:04.144Z,18.8
2018-03-25T12:56:23.968Z,18.8
2018-03-25T12:57:51.379Z,19.2
2018-03-25T12:59:13.752Z,19.2
2018-03-25T13:00:33.558Z,19.2
2018-03-25T13:01:53.380Z,19.2
2018-03-25T13:03:15.714Z,19.5
2018-03-25T13:04:40.583Z,19.7
2018-03-25T13:06:02.949Z,19.7
2018-03-25T13:07:22.784Z,19.6
2018-03-25T13:08:42.635Z,19.6
2018-03-25T13:10:05.032Z,19.6
2018-03-25T13:11:24.847Z,19.6
2018-03-25T13:12:47.260Z,19.5
2018-03-25T13:14:07.156Z,19.6
2018-03-25T13:15:37.125Z,19.5
2018-03-25T13:16:56.952Z,19.4
2018-03-25T13:18:21.856Z,19.5
2018-03-25T13:19:41.695Z,19.4
2018-03-25T13:21:01.561Z,19.4
2018-03-25T13:22:21.388Z,19.5
2018-03-25T13:23:43.783Z,19.5
2018-03-25T13:25:08.699Z,19.6
2018-03-25T13:26:33.620Z,19.7
2018-03-25T13:27:53.431Z,19.7
2018-03-25T13:29:13.280Z,19.9
2018-03-25T13:30:33.094Z,20
2018-03-25T13:32:08.080Z,20.1
2018-03-25T13:33:30.413Z,20.2
2018-03-25T13:34:52.796Z,20.2
2018-03-25T13:36:22.789Z,20.2
2018-03-25T13:37:45.130Z,20.2
2018-03-25T13:39:12.589Z,20.3
2018-03-25T13:40:32.458Z,20.3
2018-03-25T13:41:57.360Z,20.3
2018-03-25T13:43:22.269Z,20.3
2018-03-25T13:44:44.634Z,20.4
2018-03-25T13:46:04.487Z,20.4
2018-03-25T13:47:24.354Z,20.4
2018-03-25T13:48:44.169Z,20.4
2018-03-25T13:50:03.977Z,20.5
2018-03-25T13:51:26.337Z,20.5
2018-03-25T13:52:53.746Z,20.5
2018-03-25T13:54:16.089Z,20.5
2018-03-25T13:55:35.908Z,20.5
2018-03-25T13:56:55.717Z,20.5
2018-03-25T13:58:18.101Z,20.5
2018-03-25T13:59:37.981Z,20.6
2018-03-25T14:01:05.419Z,20.7
2018-03-25T14:02:25.229Z,20.8
2018-03-25T14:03:47.645Z,20.8
2018-03-25T14:05:07.545Z,20.9
2018-03-25T14:06:27.403Z,20.9
2018-03-25T14:07:52.327Z,20.9
2018-03-25T14:09:12.165Z,20.9
2018-03-25T14:10:32.005Z,21
2018-03-25T14:11:54.343Z,20.9
2018-03-25T14:13:14.165Z,21
2018-03-25T14:14:34.020Z,20.9
2018-03-25T14:16:06.538Z,21
2018-03-25T14:17:28.941Z,21
2018-03-25T14:18:48.762Z,21
2018-03-25T14:20:11.102Z,21.1
2018-03-25T14:21:41.086Z,21.1
2018-03-25T14:23:00.959Z,21
2018-03-25T14:24:23.360Z,21.1
2018-03-25T14:25:43.184Z,20.8
2018-03-25T14:27:03.016Z,20.3
2018-03-25T14:28:25.385Z,20.5
2018-03-25T14:29:47.723Z,20.5
2018-03-25T14:31:10.140Z,20.6
2018-03-25T14:32:29.955Z,19.6
2018-03-25T14:33:52.374Z,19.7
2018-03-25T14:35:14.770Z,19.8
2018-03-25T14:36:39.646Z,20.7
2018-03-25T14:38:02.058Z,20.5
2018-03-25T14:39:21.898Z,20.7
2018-03-25T14:40:44.280Z,20.8
2018-03-25T14:42:04.087Z,21.5
2018-03-25T14:43:46.709Z,20.1
2018-03-25T14:45:16.732Z,21
2018-03-25T14:46:36.620Z,20.9
2018-03-25T14:47:56.432Z,21
2018-03-25T14:49:18.832Z,20.9
2018-03-25T14:50:38.645Z,20.6
2018-03-25T14:51:58.460Z,18.7
2018-03-25T14:53:18.282Z,21.3
2018-03-25T14:54:38.099Z,19.4
2018-03-25T14:55:57.915Z,20.6
2018-03-25T14:57:17.738Z,20.7
2018-03-25T14:58:37.553Z,20.7
2018-03-25T15:00:02.457Z,21
2018-03-25T15:01:22.339Z,21.1
2018-03-25T15:02:42.260Z,19.8
2018-03-25T15:04:02.149Z,21.2
2018-03-25T15:05:21.991Z,21.2
2018-03-25T15:06:41.888Z,21.1
2018-03-25T15:08:01.797Z,20
2018-03-25T15:09:24.150Z,20.6
2018-03-25T15:10:49.049Z,19.9
2018-03-25T15:12:08.865Z,19.7
2018-03-25T15:13:46.420Z,19.4
2018-03-25T15:15:06.302Z,19.4
2018-03-25T15:16:28.701Z,19.4
2018-03-25T15:17:51.068Z,19.3
2018-03-25T15:19:18.484Z,19.3
2018-03-25T15:20:43.370Z,19.2
2018-03-25T15:22:05.715Z,19.2
2018-03-25T15:23:28.086Z,19.1
2018-03-25T15:24:47.896Z,19
2018-03-25T15:26:15.309Z,19
2018-03-25T15:27:37.659Z,18.9
2018-03-25T15:29:02.523Z,18.9
2018-03-25T15:30:22.391Z,18.9
2018-03-25T15:31:44.761Z,18.7
2018-03-25T15:33:04.575Z,18.7
2018-03-25T15:34:26.940Z,18.6
2018-03-25T15:35:54.383Z,18.6
2018-03-25T15:37:16.774Z,18.6
2018-03-25T15:38:36.609Z,18.6
2018-03-25T15:39:58.960Z,18.5
2018-03-25T15:41:26.379Z,18.4
2018-03-25T15:42:48.721Z,18.3
2018-03-25T15:44:08.576Z,18.2
2018-03-25T15:45:30.922Z,18
2018-03-25T15:46:53.257Z,18
2018-03-25T15:48:15.591Z,18
2018-03-25T15:49:35.398Z,18
2018-03-25T15:50:55.212Z,17.9
2018-03-25T15:52:17.570Z,18
2018-03-25T15:53:37.427Z,17.9
2018-03-25T15:54:57.286Z,17.8
2018-03-25T15:56:19.637Z,17.8
2018-03-25T15:57:39.451Z,17.8
2018-03-25T15:58:59.311Z,17.8
2018-03-25T16:00:19.121Z,17.7
2018-03-25T16:01:38.941Z,17.6
2018-03-25T16:02:58.790Z,17.6
2018-03-25T16:04:18.636Z,17.5
2018-03-25T16:05:38.472Z,17.3
2018-03-25T16:06:58.288Z,17.2
2018-03-25T16:08:25.720Z,17.2
2018-03-25T16:09:50.661Z,17.2
2018-03-25T16:11:18.089Z,17.1
2018-03-25T16:12:45.507Z,17.1
2018-03-25T16:14:20.525Z,17
2018-03-25T16:15:40.341Z,17
2018-03-25T16:17:00.149Z,17.1
2018-03-25T16:18:19.956Z,16.9
2018-03-25T16:19:42.344Z,17.5
2018-03-25T16:21:07.251Z,17.5
2018-03-25T16:22:29.614Z,17.4
2018-03-25T16:23:51.997Z,17.4
2018-03-25T16:25:11.853Z,17.4
2018-03-25T16:26:39.267Z,17.3
2018-03-25T16:27:59.086Z,17.3
2018-03-25T16:29:21.461Z,17.3
2018-03-25T16:30:41.310Z,17.2
2018-03-25T16:32:08.718Z,16.8
2018-03-25T16:33:33.597Z,16.9
2018-03-25T16:34:55.937Z,16.9
2018-03-25T16:36:18.344Z,16.8
2018-03-25T16:37:38.159Z,16.8
2018-03-25T16:38:57.986Z,16.8
2018-03-25T16:40:17.858Z,16.7
2018-03-25T16:41:37.674Z,16.7
2018-03-25T16:42:57.480Z,16.6
2018-03-25T16:44:19.841Z,16.7
2018-03-25T16:45:39.718Z,16.5
2018-03-25T16:47:12.208Z,16.5
2018-03-25T16:48:37.099Z,16.6
2018-03-25T16:50:04.514Z,16.5
2018-03-25T16:51:37.004Z,16.5
2018-03-25T16:53:04.419Z,16.5
2018-03-25T16:54:34.351Z,16.5
2018-03-25T16:55:56.739Z,16.5
2018-03-25T16:57:21.647Z,16.4
2018-03-25T16:58:41.538Z,16.4
2018-03-25T17:00:01.378Z,16.4
2018-03-25T17:01:23.766Z,16.4
2018-03-25T17:02:43.590Z,16.4
2018-03-25T17:04:03.422Z,16.4
2018-03-25T17:05:23.274Z,16.4
2018-03-25T17:06:45.662Z,16.4
2018-03-25T17:08:08.015Z,16.3
2018-03-25T17:09:27.833Z,16.3
2018-03-25T17:10:50.168Z,16.3
2018-03-25T17:12:10.020Z,16.5
2018-03-25T17:13:29.847Z,16.4
2018-03-25T17:14:49.660Z,16.2
2018-03-25T17:16:09.501Z,16.2
2018-03-25T17:17:34.366Z,16.3
2018-03-25T17:18:56.750Z,16.3
2018-03-25T17:20:16.590Z,16.3
2018-03-25T17:21:41.492Z,16.3
2018-03-25T17:23:06.467Z,16.4
2018-03-25T17:24:28.809Z,16.3
2018-03-25T17:25:56.282Z,16.3
2018-03-25T17:27:16.136Z,16.4
2018-03-25T17:28:36.016Z,16.3
2018-03-25T17:29:55.902Z,16.3
2018-03-25T17:31:20.825Z,16.3
2018-03-25T17:32:45.715Z,16.2
2018-03-25T17:34:05.620Z,16.2
2018-03-25T17:35:25.430Z,16.1
2018-03-25T17:36:45.244Z,16.1
2018-03-25T17:38:10.155Z,16.2
2018-03-25T17:39:35.024Z,16.1
2018-03-25T17:40:54.886Z,16.1
2018-03-25T17:42:17.242Z,16
2018-03-25T17:43:37.110Z,15.4
2018-03-25T17:44:56.931Z,16.8
2018-03-25T17:46:16.761Z,16
2018-03-25T17:47:41.668Z,16.7
2018-03-25T17:49:04.054Z,16.7
2018-03-25T17:50:23.863Z,14.5
2018-03-25T17:51:48.750Z,15.6
2018-03-25T17:53:11.148Z,15.9
2018-03-25T17:54:31.021Z,15.8
2018-03-25T17:55:50.937Z,15.8
2018-03-25T17:57:10.842Z,15.9
2018-03-25T17:58:30.705Z,15.8
2018-03-25T17:59:50.549Z,15.9
2018-03-25T18:01:15.468Z,15.8
2018-03-25T18:02:37.814Z,15.7
2018-03-25T18:03:57.633Z,15.7
2018-03-25T18:05:17.492Z,16
2018-03-25T18:06:37.353Z,15.9
2018-03-25T18:07:57.163Z,16.4
2018-03-25T18:09:19.504Z,16.3
2018-03-25T18:10:39.333Z,16.3
2018-03-25T18:11:59.245Z,16.3
2018-03-25T18:13:21.606Z,16.3
2018-03-25T18:14:41.451Z,16.2
2018-03-25T18:16:01.314Z,16.1
2018-03-25T18:17:33.462Z,16
2018-03-25T18:18:53.640Z,15.5
2018-03-25T18:20:13.454Z,15.3
2018-03-25T18:21:33.311Z,15.5
2018-03-25T18:22:53.170Z,15.5
2018-03-25T18:24:15.591Z,15.5
2018-03-25T18:25:40.499Z,15.4
2018-03-25T18:27:00.385Z,15.4